sensor_id;sensor_type;location;lat;lon;timestamp;pressure;altitude;pressure_sealevel;temperature;humidity
57374;BME280;43964;53.890;25.340;2023-02-03T00:01:29;1018.4;;;2.6;62.6
57374;BME280;43964;53.890;25.340;2023-02-03T00:06:57;1018.5;;;2.6;62.6
57374;BME280;43964;53.890;25.340;2023-02-03T00:11:23;1018.7;;;2.5;62.6
57374;BME280;43964;53.890;25.340;2023-02-03T00:16:43;1018.7;;;2.5;62.6
57374;BME280;43964;53.890;25.340;2023-02-03T00:21:09;1018.8;;;2.5;62.6
57374;BME280;43964;53.890;25.340;2023-02-03T00:26:47;1018.8;;;2.5;62.6
57374;BME280;43964;53.890;25.340;2023-02-03T00:31:14;1018.8;;;2.4;62.6
57374;BME280;43964;53.890;25.340;2023-02-03T00:36:47;1018.9;;;2.5;62.5
57374;BME280;43964;53.890;25.340;2023-02-03T00:41:47;1019;;;2.5;62.5
57374;BME280;43964;53.890;25.340;2023-02-03T00:47:01;1019;;;2.5;62.4
57374;BME280;43964;53.890;25.340;2023-02-03T00:52:03;1019;;;2.5;62.4
57374;BME280;43964;53.890;25.340;2023-02-03T00:57:03;1019.1;;;2.4;62.3
57374;BME280;43964;53.890;25.340;2023-02-03T01:01:59;1019.2;;;2.4;62.3
57374;BME280;43964;53.890;25.340;2023-02-03T01:06:25;1019.2;;;2.3;62.3
57374;BME280;43964;53.890;25.340;2023-02-03T01:11:45;1019.3;;;2.3;62.2
57374;BME280;43964;53.890;25.340;2023-02-03T01:16:23;1019.4;;;2.3;62.2
57374;BME280;43964;53.890;25.340;2023-02-03T01:21:49;1019.4;;;2.2;62.1
57374;BME280;43964;53.890;25.340;2023-02-03T01:26:39;1019.3;;;2.1;62.1
57374;BME280;43964;53.890;25.340;2023-02-03T01:31:59;1019.4;;;2.2;61.9
57374;BME280;43964;53.890;25.340;2023-02-03T01:36:49;1019.5;;;2.2;61.8
57374;BME280;43964;53.890;25.340;2023-02-03T01:42:03;1019.6;;;2.2;61.7
57374;BME280;43964;53.890;25.340;2023-02-03T01:46:48;1019.6;;;2.2;61.6
57374;BME280;43964;53.890;25.340;2023-02-03T01:51:11;1019.6;;;2.1;61.4
57374;BME280;43964;53.890;25.340;2023-02-03T01:56:11;1019.6;;;2.2;61.5
57374;BME280;43964;53.890;25.340;2023-02-03T02:01:25;1019.6;;;2.2;61.4
57374;BME280;43964;53.890;25.340;2023-02-03T02:06:47;1019.7;;;2.2;61.3
57374;BME280;43964;53.890;25.340;2023-02-03T02:11:23;1019.7;;;2.2;61.2
57374;BME280;43964;53.890;25.340;2023-02-03T02:16:52;1019.8;;;2.1;61
57374;BME280;43964;53.890;25.340;2023-02-03T02:21:47;1019.8;;;2.1;60.9
57374;BME280;43964;53.890;25.340;2023-02-03T02:27:04;1019.9;;;2;60.5
57374;BME280;43964;53.890;25.340;2023-02-03T02:31:53;1020;;;1.9;60.5
57374;BME280;43964;53.890;25.340;2023-02-03T02:37:04;1020;;;1.8;60.4
57374;BME280;43964;53.890;25.340;2023-02-03T02:41:51;1020;;;1.8;60.3
57374;BME280;43964;53.890;25.340;2023-02-03T02:46:12;1020.1;;;1.8;60.2
57374;BME280;43964;53.890;25.340;2023-02-03T02:51:37;1020.2;;;1.7;60.2
57374;BME280;43964;53.890;25.340;2023-02-03T02:56:51;1020.2;;;1.7;60.2
57374;BME280;43964;53.890;25.340;2023-02-03T03:01:45;1020.2;;;1.7;60.2
57374;BME280;43964;53.890;25.340;2023-02-03T03:06:38;1020.2;;;1.6;60.2
57374;BME280;43964;53.890;25.340;2023-02-03T03:11:11;1020.2;;;1.6;60.1
57374;BME280;43964;53.890;25.340;2023-02-03T03:16:24;1020.2;;;1.6;60.1
57374;BME280;43964;53.890;25.340;2023-02-03T03:21:58;1020.2;;;1.6;59.9
57374;BME280;43964;53.890;25.340;2023-02-03T03:26:24;1020.2;;;1.6;59.8
57374;BME280;43964;53.890;25.340;2023-02-03T03:31:45;1020.2;;;1.5;59.7
57374;BME280;43964;53.890;25.340;2023-02-03T03:36:13;1020.2;;;1.5;59.6
57374;BME280;43964;53.890;25.340;2023-02-03T03:41:25;1020.2;;;1.5;59.6
57374;BME280;43964;53.890;25.340;2023-02-03T03:46:24;1020.3;;;1.5;59.6
57374;BME280;43964;53.890;25.340;2023-02-03T03:51:24;1020.4;;;1.5;59.7
57374;BME280;43964;53.890;25.340;2023-02-03T03:57:00;1020.5;;;1.5;59.6
57374;BME280;43964;53.890;25.340;2023-02-03T04:01:59;1020.5;;;1.4;59.6
57374;BME280;43964;53.890;25.340;2023-02-03T04:06:31;1020.5;;;1.4;59.6
57374;BME280;43964;53.890;25.340;2023-02-03T04:11:59;1020.6;;;1.4;59.6
57374;BME280;43964;53.890;25.340;2023-02-03T04:17:01;1020.6;;;1.3;59.6
57374;BME280;43964;53.890;25.340;2023-02-03T04:21:11;1020.7;;;1.2;59.6
57374;BME280;43964;53.890;25.340;2023-02-03T04:26:33;1020.7;;;1.2;59.5
57374;BME280;43964;53.890;25.340;2023-02-03T04:31:57;1020.7;;;1.1;59.5
57374;BME280;43964;53.890;25.340;2023-02-03T04:36:11;1020.8;;;1.1;59.6
57374;BME280;43964;53.890;25.340;2023-02-03T04:41:35;1020.8;;;1.1;59.6
57374;BME280;43964;53.890;25.340;2023-02-03T04:46:23;1020.8;;;1.1;59.7
57374;BME280;43964;53.890;25.340;2023-02-03T04:51:47;1020.9;;;1.1;59.7
57374;BME280;43964;53.890;25.340;2023-02-03T04:56:49;1020.9;;;1.3;59.6
57374;BME280;43964;53.890;25.340;2023-02-03T05:01:29;1021;;;1.3;59.6
57374;BME280;43964;53.890;25.340;2023-02-03T05:06:57;1020.9;;;1.3;59.5
57374;BME280;43964;53.890;25.340;2023-02-03T05:11:33;1020.9;;;1.3;59.5
57374;BME280;43964;53.890;25.340;2023-02-03T05:16:45;1020.9;;;1.3;59.3
57374;BME280;43964;53.890;25.340;2023-02-03T05:21:21;1020.9;;;1.3;59.2
57374;BME280;43964;53.890;25.340;2023-02-03T05:26:45;1020.9;;;1.3;59.2
57374;BME280;43964;53.890;25.340;2023-02-03T05:31:11;1021;;;1.3;59.3
57374;BME280;43964;53.890;25.340;2023-02-03T05:36:33;1021;;;1.3;59
57374;BME280;43964;53.890;25.340;2023-02-03T05:41:23;1021.2;;;1.2;59.3
57374;BME280;43964;53.890;25.340;2023-02-03T05:46:43;1021.3;;;1.1;59.4
57374;BME280;43964;53.890;25.340;2023-02-03T05:51:55;1021.3;;;1.1;59.5
57374;BME280;43964;53.890;25.340;2023-02-03T05:56:43;1021.4;;;1.1;59.5
57374;BME280;43964;53.890;25.340;2023-02-03T06:01:59;1021.5;;;1.1;59.5
57374;BME280;43964;53.890;25.340;2023-02-03T06:06:11;1021.5;;;1.1;59.5
57374;BME280;43964;53.890;25.340;2023-02-03T06:11:43;1021.5;;;1.1;59.5
57374;BME280;43964;53.890;25.340;2023-02-03T06:16:11;1021.5;;;1.1;59.4
57374;BME280;43964;53.890;25.340;2023-02-03T06:21:49;1021.5;;;1.1;59.5
57374;BME280;43964;53.890;25.340;2023-02-03T06:26:11;1021.6;;;1.2;59.5
57374;BME280;43964;53.890;25.340;2023-02-03T06:31:35;1021.6;;;1.2;59.4
57374;BME280;43964;53.890;25.340;2023-02-03T06:36:45;1021.6;;;1.3;59.4
57374;BME280;43964;53.890;25.340;2023-02-03T06:41:43;1021.7;;;1.3;59.4
57374;BME280;43964;53.890;25.340;2023-02-03T06:47:01;1021.7;;;1.3;59.3
57374;BME280;43964;53.890;25.340;2023-02-03T06:51:21;1021.7;;;1.4;59.3
57374;BME280;43964;53.890;25.340;2023-02-03T06:57:01;1021.7;;;1.4;59.2
57374;BME280;43964;53.890;25.340;2023-02-03T07:01:11;1021.6;;;1.5;59.1
57374;BME280;43964;53.890;25.340;2023-02-03T07:06:43;1021.6;;;1.7;58.9
57374;BME280;43964;53.890;25.340;2023-02-03T07:11:21;1021.6;;;1.7;58.8
57374;BME280;43964;53.890;25.340;2023-02-03T07:16:49;1021.6;;;1.8;58.5
57374;BME280;43964;53.890;25.340;2023-02-03T07:21:12;1021.6;;;1.8;58.4
57374;BME280;43964;53.890;25.340;2023-02-03T07:26:45;1021.5;;;1.9;58.2
57374;BME280;43964;53.890;25.340;2023-02-03T07:31:45;1021.5;;;2.1;58.1
57374;BME280;43964;53.890;25.340;2023-02-03T07:37:01;1021.5;;;2.3;57.8
57374;BME280;43964;53.890;25.340;2023-02-03T07:41:57;1021.5;;;2.4;57.7
57374;BME280;43964;53.890;25.340;2023-02-03T07:46:47;1021.5;;;2.5;57.6
57374;BME280;43964;53.890;25.340;2023-02-03T07:52:01;1021.5;;;2.6;57.4
57374;BME280;43964;53.890;25.340;2023-02-03T07:56:25;1021.5;;;2.7;57.2
57374;BME280;43964;53.890;25.340;2023-02-03T08:01:31;1021.4;;;2.8;57
57374;BME280;43964;53.890;25.340;2023-02-03T08:06:21;1021.3;;;3;56.8
57374;BME280;43964;53.890;25.340;2023-02-03T08:11:43;1021.2;;;3.2;56.2
57374;BME280;43964;53.890;25.340;2023-02-03T08:16:11;1021.2;;;3.3;55.4
57374;BME280;43964;53.890;25.340;2023-02-03T08:21:55;1021.1;;;3.6;54.2
57374;BME280;43964;53.890;25.340;2023-02-03T08:26:35;1021.1;;;3.5;53.7
57374;BME280;43964;53.890;25.340;2023-02-03T08:31:59;1021;;;3.8;53.6
57374;BME280;43964;53.890;25.340;2023-02-03T08:36:45;1021;;;4.2;53.3
57374;BME280;43964;53.890;25.340;2023-02-03T08:41:23;1021;;;4.6;53.2
57374;BME280;43964;53.890;25.340;2023-02-03T08:46:43;1021;;;4.9;53
57374;BME280;43964;53.890;25.340;2023-02-03T08:51:46;1020.9;;;5.3;52.6
57374;BME280;43964;53.890;25.340;2023-02-03T08:56:45;1020.9;;;5.5;52.2
57374;BME280;43964;53.890;25.340;2023-02-03T09:01:23;1020.9;;;5.8;51.9
57374;BME280;43964;53.890;25.340;2023-02-03T09:06:31;1020.9;;;5.9;51.7
57374;BME280;43964;53.890;25.340;2023-02-03T09:11:35;1020.9;;;6;50.8
57374;BME280;43964;53.890;25.340;2023-02-03T09:17:02;1020.9;;;6.1;50.2
57374;BME280;43964;53.890;25.340;2023-02-03T09:21:36;1020.9;;;6.2;49.5
57374;BME280;43964;53.890;25.340;2023-02-03T09:26:35;1020.9;;;6.2;49.5
57374;BME280;43964;53.890;25.340;2023-02-03T09:31:35;1021;;;6.1;49.9
57374;BME280;43964;53.890;25.340;2023-02-03T09:36:11;1021;;;6;49.9
57374;BME280;43964;53.890;25.340;2023-02-03T09:41:24;1020.9;;;5.7;50
57374;BME280;43964;53.890;25.340;2023-02-03T09:46:26;1020.9;;;5.6;50
57374;BME280;43964;53.890;25.340;2023-02-03T09:52:01;1020.9;;;5.6;49.8
57374;BME280;43964;53.890;25.340;2023-02-03T09:57:01;1020.9;;;5.6;49.1
57374;BME280;43964;53.890;25.340;2023-02-03T10:01:33;1020.9;;;5.6;48.9
57374;BME280;43964;53.890;25.340;2023-02-03T10:07:01;1020.8;;;5.6;48.9
57374;BME280;43964;53.890;25.340;2023-02-03T10:12:09;1020.8;;;5.7;48.7
57374;BME280;43964;53.890;25.340;2023-02-03T10:17:05;1020.7;;;5.8;48.8
57374;BME280;43964;53.890;25.340;2023-02-03T10:21:49;1020.7;;;5.8;48.9
57374;BME280;43964;53.890;25.340;2023-02-03T10:26:35;1020.6;;;5.7;49
57374;BME280;43964;53.890;25.340;2023-02-03T10:31:24;1020.4;;;5.6;49.1
57374;BME280;43964;53.890;25.340;2023-02-03T10:36:41;1020.4;;;5.4;49.2
57374;BME280;43964;53.890;25.340;2023-02-03T10:41:11;1020.3;;;5.4;48.7
57374;BME280;43964;53.890;25.340;2023-02-03T10:47:10;1020.2;;;5.5;48.5
57374;BME280;43964;53.890;25.340;2023-02-03T10:52:03;1020.2;;;5.6;48.2
57374;BME280;43964;53.890;25.340;2023-02-03T10:56:33;1020.1;;;5.8;48.1
57374;BME280;43964;53.890;25.340;2023-02-03T11:01:51;1020.1;;;5.8;48.3
57374;BME280;43964;53.890;25.340;2023-02-03T11:07:02;1020.1;;;5.7;48.5
57374;BME280;43964;53.890;25.340;2023-02-03T11:12:05;1020;;;5.6;48.5
57374;BME280;43964;53.890;25.340;2023-02-03T11:16:12;1020;;;5.1;48.7
57374;BME280;43964;53.890;25.340;2023-02-03T11:22:01;1019.9;;;4.9;48.9
57374;BME280;43964;53.890;25.340;2023-02-03T11:26:24;1019.9;;;4.9;48.9
57374;BME280;43964;53.890;25.340;2023-02-03T11:31:14;1019.8;;;5;48.7
57374;BME280;43964;53.890;25.340;2023-02-03T11:36:11;1019.8;;;4.6;48.8
57374;BME280;43964;53.890;25.340;2023-02-03T11:41:43;1019.7;;;4.7;48.8
57374;BME280;43964;53.890;25.340;2023-02-03T11:47:02;1019.6;;;4.8;48.8
57374;BME280;43964;53.890;25.340;2023-02-03T11:51:25;1019.5;;;4.7;48.9
57374;BME280;43964;53.890;25.340;2023-02-03T11:56:54;1019.5;;;4.5;49
57374;BME280;43964;53.890;25.340;2023-02-03T12:01:41;1019.4;;;4.7;49.2
57374;BME280;43964;53.890;25.340;2023-02-03T12:06:54;1019.4;;;4.9;49
57374;BME280;43964;53.890;25.340;2023-02-03T12:11:14;1019.4;;;5;49
57374;BME280;43964;53.890;25.340;2023-02-03T12:16:57;1019.3;;;5.1;49
57374;BME280;43964;53.890;25.340;2023-02-03T12:21:18;1019.2;;;5;49
57374;BME280;43964;53.890;25.340;2023-02-03T12:26:37;1019;;;4.8;49
57374;BME280;43964;53.890;25.340;2023-02-03T12:31:58;1019;;;4.9;48.9
57374;BME280;43964;53.890;25.340;2023-02-03T12:36:48;1019;;;5;48.8
57374;BME280;43964;53.890;25.340;2023-02-03T12:42:06;1019.1;;;5;49
57374;BME280;43964;53.890;25.340;2023-02-03T12:46:41;1019.1;;;4.8;49.1
57374;BME280;43964;53.890;25.340;2023-02-03T12:52:04;1019;;;4.7;49.2
57374;BME280;43964;53.890;25.340;2023-02-03T12:56:12;1019;;;4.6;49.3
57374;BME280;43964;53.890;25.340;2023-02-03T13:02:02;1019;;;4.4;49.5
57374;BME280;43964;53.890;25.340;2023-02-03T13:06:27;1018.9;;;4.3;49.6
57374;BME280;43964;53.890;25.340;2023-02-03T13:11:51;1018.9;;;4.1;49.7
57374;BME280;43964;53.890;25.340;2023-02-03T13:16:23;1018.8;;;4;49.8
57374;BME280;43964;53.890;25.340;2023-02-03T13:21:47;1018.8;;;3.9;50
57374;BME280;43964;53.890;25.340;2023-02-03T13:26:50;1018.7;;;3.8;50.2
57374;BME280;43964;53.890;25.340;2023-02-03T13:32:05;1018.6;;;3.8;50.4
57374;BME280;43964;53.890;25.340;2023-02-03T13:36:49;1018.6;;;3.9;50.5
57374;BME280;43964;53.890;25.340;2023-02-03T13:41:46;1018.5;;;3.8;50.5
57374;BME280;43964;53.890;25.340;2023-02-03T13:47:01;1018.4;;;3.8;50.5
57374;BME280;43964;53.890;25.340;2023-02-03T13:51:26;1018.4;;;3.8;50.5
57374;BME280;43964;53.890;25.340;2023-02-03T13:56:52;1018.3;;;3.9;50.5
57374;BME280;43964;53.890;25.340;2023-02-03T14:01:27;1018.2;;;3.9;50.6
57374;BME280;43964;53.890;25.340;2023-02-03T14:06:54;1018.1;;;3.8;50.8
57374;BME280;43964;53.890;25.340;2023-02-03T14:11:39;1018.1;;;3.8;50.8
57374;BME280;43964;53.890;25.340;2023-02-03T14:16:44;1018.1;;;3.8;50.8
57374;BME280;43964;53.890;25.340;2023-02-03T14:21:50;1018.1;;;3.8;50.9
57374;BME280;43964;53.890;25.340;2023-02-03T14:27:02;1018.1;;;3.8;50.9
57374;BME280;43964;53.890;25.340;2023-02-03T14:32:00;1018.2;;;3.7;51
57374;BME280;43964;53.890;25.340;2023-02-03T14:37:08;1018.2;;;3.7;51.1
57374;BME280;43964;53.890;25.340;2023-02-03T14:42:01;1018.2;;;3.7;51.1
57374;BME280;43964;53.890;25.340;2023-02-03T14:46:26;1018.2;;;3.6;51.2
57374;BME280;43964;53.890;25.340;2023-02-03T14:51:52;1018.2;;;3.6;51.3
57374;BME280;43964;53.890;25.340;2023-02-03T14:56:12;1018.2;;;3.5;51.3
57374;BME280;43964;53.890;25.340;2023-02-03T15:02:10;1018.1;;;3.5;51.5
57374;BME280;43964;53.890;25.340;2023-02-03T15:06:57;1018.2;;;3.4;51.7
57374;BME280;43964;53.890;25.340;2023-02-03T15:11:57;1018.2;;;3.3;51.9
57374;BME280;43964;53.890;25.340;2023-02-03T15:16:12;1018.1;;;3.2;52.2
57374;BME280;43964;53.890;25.340;2023-02-03T15:21:59;1018;;;3.2;52.1
57374;BME280;43964;53.890;25.340;2023-02-03T15:26:44;1018;;;3.2;52.1
57374;BME280;43964;53.890;25.340;2023-02-03T15:31:23;1018.1;;;3.2;52.1
57374;BME280;43964;53.890;25.340;2023-02-03T15:36:13;1018.1;;;3.2;52.1
57374;BME280;43964;53.890;25.340;2023-02-03T15:41:35;1018.1;;;3.2;52.1
57374;BME280;43964;53.890;25.340;2023-02-03T15:46:34;1018.1;;;3.2;52.1
57374;BME280;43964;53.890;25.340;2023-02-03T15:51:22;1018.1;;;3.2;52.1
57374;BME280;43964;53.890;25.340;2023-02-03T15:56:32;1018;;;3.2;52.1
57374;BME280;43964;53.890;25.340;2023-02-03T16:01:12;1018.1;;;3.2;52.2
57374;BME280;43964;53.890;25.340;2023-02-03T16:06:59;1018.1;;;3.1;52.3
57374;BME280;43964;53.890;25.340;2023-02-03T16:11:25;1018;;;3.1;52.4
57374;BME280;43964;53.890;25.340;2023-02-03T16:16:48;1018;;;3;52.5
57374;BME280;43964;53.890;25.340;2023-02-03T16:21:20;1018.1;;;3;52.7
57374;BME280;43964;53.890;25.340;2023-02-03T16:26:15;1018.2;;;3;52.7
57374;BME280;43964;53.890;25.340;2023-02-03T16:31:12;1018.2;;;2.9;52.8
57374;BME280;43964;53.890;25.340;2023-02-03T16:36:23;1018.2;;;2.9;52.9
57374;BME280;43964;53.890;25.340;2023-02-03T16:41:59;1018.3;;;2.9;53
57374;BME280;43964;53.890;25.340;2023-02-03T16:46:59;1018.2;;;2.8;53
57374;BME280;43964;53.890;25.340;2023-02-03T16:51:24;1018.2;;;2.8;53.1
57374;BME280;43964;53.890;25.340;2023-02-03T16:56:40;1018.2;;;2.8;53.2
57374;BME280;43964;53.890;25.340;2023-02-03T17:01:57;1018.2;;;2.7;53.4
57374;BME280;43964;53.890;25.340;2023-02-03T17:06:23;1018.2;;;2.6;53.5
57374;BME280;43964;53.890;25.340;2023-02-03T17:11:35;1018.3;;;2.6;53.6
57374;BME280;43964;53.890;25.340;2023-02-03T17:17:01;1018.3;;;2.6;53.7
57374;BME280;43964;53.890;25.340;2023-02-03T17:21:24;1018.3;;;2.6;53.7
57374;BME280;43964;53.890;25.340;2023-02-03T17:26:11;1018.3;;;2.5;53.7
57374;BME280;43964;53.890;25.340;2023-02-03T17:31:12;1018.3;;;2.5;53.7
57374;BME280;43964;53.890;25.340;2023-02-03T17:36:45;1018.3;;;2.5;53.8
57374;BME280;43964;53.890;25.340;2023-02-03T17:41:47;1018.3;;;2.5;53.8
57374;BME280;43964;53.890;25.340;2023-02-03T17:46:35;1018.2;;;2.5;53.9
57374;BME280;43964;53.890;25.340;2023-02-03T17:51:59;1018.2;;;2.4;54.1
57374;BME280;43964;53.890;25.340;2023-02-03T17:57:01;1018.2;;;2.4;54.3
57374;BME280;43964;53.890;25.340;2023-02-03T18:01:24;1018.2;;;2.4;54.4
57374;BME280;43964;53.890;25.340;2023-02-03T18:06:24;1018.2;;;2.4;54.5
57374;BME280;43964;53.890;25.340;2023-02-03T18:12:01;1018.3;;;2.4;54.6
57374;BME280;43964;53.890;25.340;2023-02-03T18:16:12;1018.3;;;2.3;54.6
57374;BME280;43964;53.890;25.340;2023-02-03T18:21:12;1018.3;;;2.3;54.6
57374;BME280;43964;53.890;25.340;2023-02-03T18:26:11;1018.3;;;2.2;54.6
57374;BME280;43964;53.890;25.340;2023-02-03T18:31:43;1018.4;;;2.2;54.6
57374;BME280;43964;53.890;25.340;2023-02-03T18:36:49;1018.4;;;2.2;54.6
57374;BME280;43964;53.890;25.340;2023-02-03T18:41:31;1018.5;;;2.1;54.7
57374;BME280;43964;53.890;25.340;2023-02-03T18:46:59;1018.5;;;2.1;54.7
57374;BME280;43964;53.890;25.340;2023-02-03T18:51:32;1018.5;;;2.1;54.8
57374;BME280;43964;53.890;25.340;2023-02-03T18:56:49;1018.6;;;2.1;54.9
57374;BME280;43964;53.890;25.340;2023-02-03T19:01:31;1018.6;;;2.1;54.9
57374;BME280;43964;53.890;25.340;2023-02-03T19:06:36;1018.6;;;2.1;55
57374;BME280;43964;53.890;25.340;2023-02-03T19:11:11;1018.6;;;2.1;55
57374;BME280;43964;53.890;25.340;2023-02-03T19:16:37;1018.6;;;2.2;55
57374;BME280;43964;53.890;25.340;2023-02-03T19:21:47;1018.6;;;2.2;54.9
57374;BME280;43964;53.890;25.340;2023-02-03T19:26:23;1018.7;;;2.2;54.9
57374;BME280;43964;53.890;25.340;2023-02-03T19:31:57;1018.7;;;2.2;54.9
57374;BME280;43964;53.890;25.340;2023-02-03T19:36:12;1018.7;;;2.2;54.9
57374;BME280;43964;53.890;25.340;2023-02-03T19:41:59;1018.7;;;2.1;54.9
57374;BME280;43964;53.890;25.340;2023-02-03T19:46:36;1018.7;;;2.1;55
57374;BME280;43964;53.890;25.340;2023-02-03T19:51:47;1018.8;;;2;55
57374;BME280;43964;53.890;25.340;2023-02-03T19:56:23;1018.8;;;2;55.2
57374;BME280;43964;53.890;25.340;2023-02-03T20:01:49;1018.9;;;2;55.3
57374;BME280;43964;53.890;25.340;2023-02-03T20:06:11;1018.9;;;2;55.3
57374;BME280;43964;53.890;25.340;2023-02-03T20:11:49;1019;;;2;55.3
57374;BME280;43964;53.890;25.340;2023-02-03T20:16:39;1019;;;2;55.3
57374;BME280;43964;53.890;25.340;2023-02-03T20:22:03;1019.1;;;2;55.3
57374;BME280;43964;53.890;25.340;2023-02-03T20:27:03;1019.1;;;2;55.3
57374;BME280;43964;53.890;25.340;2023-02-03T20:31:48;1019.1;;;1.9;55.4
57374;BME280;43964;53.890;25.340;2023-02-03T20:37:04;1019.1;;;1.9;55.4
57374;BME280;43964;53.890;25.340;2023-02-03T20:41:27;1019.1;;;1.9;55.5
57374;BME280;43964;53.890;25.340;2023-02-03T20:46:37;1019.1;;;1.8;55.6
57374;BME280;43964;53.890;25.340;2023-02-03T20:51:49;1019.1;;;1.8;55.7
57374;BME280;43964;53.890;25.340;2023-02-03T20:56:49;1019.2;;;1.7;55.9
57374;BME280;43964;53.890;25.340;2023-02-03T21:01:12;1019.2;;;1.7;55.9
57374;BME280;43964;53.890;25.340;2023-02-03T21:07:05;1019.2;;;1.7;56
57374;BME280;43964;53.890;25.340;2023-02-03T21:11:37;1019.3;;;1.7;56
57374;BME280;43964;53.890;25.340;2023-02-03T21:17:01;1019.3;;;1.6;56
57374;BME280;43964;53.890;25.340;2023-02-03T21:21:12;1019.4;;;1.6;56
57374;BME280;43964;53.890;25.340;2023-02-03T21:26:37;1019.4;;;1.5;56.1
57374;BME280;43964;53.890;25.340;2023-02-03T21:31:37;1019.4;;;1.5;56.1
57374;BME280;43964;53.890;25.340;2023-02-03T21:36:15;1019.5;;;1.5;56.2
57374;BME280;43964;53.890;25.340;2023-02-03T21:41:47;1019.5;;;1.5;56.3
57374;BME280;43964;53.890;25.340;2023-02-03T21:46:39;1019.6;;;1.4;56.4
57374;BME280;43964;53.890;25.340;2023-02-03T21:51:39;1019.7;;;1.4;56.5
57374;BME280;43964;53.890;25.340;2023-02-03T21:56:40;1019.7;;;1.5;56.5
57374;BME280;43964;53.890;25.340;2023-02-03T22:01:59;1019.7;;;1.6;56.5
57374;BME280;43964;53.890;25.340;2023-02-03T22:06:41;1019.8;;;1.7;56.5
57374;BME280;43964;53.890;25.340;2023-02-03T22:12:01;1019.8;;;1.7;56.4
57374;BME280;43964;53.890;25.340;2023-02-03T22:16:47;1019.8;;;1.8;56.3
57374;BME280;43964;53.890;25.340;2023-02-03T22:21:21;1019.8;;;1.8;56.2
57374;BME280;43964;53.890;25.340;2023-02-03T22:26:11;1019.8;;;1.7;56.3
57374;BME280;43964;53.890;25.340;2023-02-03T22:31:11;1019.9;;;1.7;56.4
57374;BME280;43964;53.890;25.340;2023-02-03T22:36:45;1019.9;;;1.6;56.4
57374;BME280;43964;53.890;25.340;2023-02-03T22:41:11;1019.9;;;1.6;56.2
57374;BME280;43964;53.890;25.340;2023-02-03T22:46:21;1020;;;1.7;56.2
57374;BME280;43964;53.890;25.340;2023-02-03T22:51:37;1020;;;1.8;56.3
57374;BME280;43964;53.890;25.340;2023-02-03T22:57:01;1020.1;;;1.8;56.4
57374;BME280;43964;53.890;25.340;2023-02-03T23:01:23;1020.1;;;1.8;56.4
57374;BME280;43964;53.890;25.340;2023-02-03T23:06:47;1020.1;;;1.9;56.4
57374;BME280;43964;53.890;25.340;2023-02-03T23:11:37;1020.2;;;1.9;56.4
57374;BME280;43964;53.890;25.340;2023-02-03T23:16:11;1020.2;;;2;56.3
57374;BME280;43964;53.890;25.340;2023-02-03T23:21:11;1020.2;;;2;56.3
57374;BME280;43964;53.890;25.340;2023-02-03T23:26:23;1020.2;;;2;56.3
57374;BME280;43964;53.890;25.340;2023-02-03T23:32:01;1020.3;;;2;56.3
57374;BME280;43964;53.890;25.340;2023-02-03T23:36:59;1020.3;;;1.9;56.3
57374;BME280;43964;53.890;25.340;2023-02-03T23:41:11;1020.3;;;1.9;56.3
57374;BME280;43964;53.890;25.340;2023-02-03T23:47:01;1020.3;;;1.8;56.4
57374;BME280;43964;53.890;25.340;2023-02-03T23:52:01;1020.3;;;1.8;56.6
57374;BME280;43964;53.890;25.340;2023-02-03T23:56:23;1020.4;;;1.9;56.7
